Time;durP1;ratioP1;P1;durP2;ratioP2;P2;SDS_P1;SDS_P2;PMS_P1;PMS_P2;Temp;Humidity;BMP_temperature;BMP_pressure;BME280_temperature;BME280_humidity;BME280_pressure;Samples;Min_cycle;Max_cycle;Signal;HPM_P1;HPM_P2
2023/03/02 00:07:08;;;;;;;1999.90;999.90;;;1.10;99.90;;;;;;6760847;87;20246;-76
2023/03/02 00:17:09;;;;;;;1999.90;999.90;;;0.90;99.90;;;;;;6765151;87;20195;-76
2023/03/02 00:27:09;;;;;;;1999.90;999.90;;;0.80;99.90;;;;;;6766629;87;20175;-75
2023/03/02 00:37:10;;;;;;;1999.90;999.90;;;0.60;99.90;;;;;;6759957;87;20316;-76
2023/03/02 00:47:10;;;;;;;1999.90;999.90;;;0.60;99.90;;;;;;6763739;87;20192;-75
2023/03/02 00:57:11;;;;;;;1999.90;999.90;;;0.70;99.90;;;;;;6765796;87;20270;-75
2023/03/02 01:07:15;;;;;;;1999.90;999.90;;;0.60;99.90;;;;;;6769695;87;20634;-75
2023/03/02 01:17:16;;;;;;;1999.90;999.90;;;0.50;99.90;;;;;;6763379;87;20335;-75
2023/03/02 01:27:16;;;;;;;1999.90;999.90;;;0.40;99.90;;;;;;6766559;87;20286;-75
2023/03/02 01:37:17;;;;;;;1999.90;999.90;;;0.30;99.90;;;;;;6780155;87;20363;-73
2023/03/02 01:47:23;;;;;;;1999.90;999.90;;;0.10;99.90;;;;;;6769289;87;20189;-75
2023/03/02 01:57:29;;;;;;;1999.90;999.90;;;0.20;99.90;;;;;;6755599;87;20730;-76
2023/03/02 02:07:30;;;;;;;1999.90;999.90;;;0.10;99.90;;;;;;6752815;87;20728;-76
2023/03/02 02:17:31;;;;;;;1999.90;999.90;;;0.00;99.90;;;;;;6753884;87;20210;-76
2023/03/02 02:27:32;;;;;;;1999.90;999.90;;;-0.10;99.90;;;;;;6750840;87;20341;-75
2023/03/02 02:37:50;;;;;;;1999.90;999.90;;;-0.20;99.90;;;;;;6755405;76;20231;-78
2023/03/02 02:47:52;;;;;;;1999.90;999.90;;;-0.30;99.90;;;;;;6751880;87;20188;-76
2023/03/02 02:57:56;;;;;;;1999.90;999.90;;;-0.30;99.90;;;;;;6758725;87;20197;-77
2023/03/02 03:08:06;;;;;;;1999.90;999.90;;;-0.40;99.90;;;;;;6751099;87;20208;-77
2023/03/02 03:18:07;;;;;;;1999.90;999.90;;;-0.40;99.90;;;;;;6737566;88;20239;-77
2023/03/02 03:28:07;;;;;;;1999.90;999.90;;;-0.40;99.90;;;;;;6764045;87;20204;-76
2023/03/02 03:38:08;;;;;;;1999.90;999.90;;;-0.40;99.90;;;;;;6763381;87;20821;-76
2023/03/02 03:48:08;;;;;;;1999.90;999.90;;;-0.50;99.90;;;;;;6747547;88;20306;-76
2023/03/02 03:58:09;;;;;;;1999.90;999.90;;;-0.50;99.90;;;;;;6737756;88;20829;-77
2023/03/02 04:08:10;;;;;;;1999.90;999.90;;;-0.60;99.90;;;;;;6735163;88;20193;-78
2023/03/02 04:18:10;;;;;;;1999.90;999.90;;;-0.60;99.90;;;;;;6740931;87;20354;-77
2023/03/02 04:28:11;;;;;;;1999.90;999.90;;;-0.80;99.90;;;;;;6754187;87;20363;-77
2023/03/02 04:38:11;;;;;;;1999.90;999.90;;;-0.80;99.90;;;;;;6760638;87;20203;-77
2023/03/02 04:48:12;;;;;;;1999.90;999.90;;;-0.80;99.90;;;;;;6763739;87;20204;-77
2023/03/02 04:58:13;;;;;;;1999.90;999.90;;;-0.80;99.90;;;;;;6746836;87;20261;-77
2023/03/02 05:08:13;;;;;;;1999.90;999.90;;;-0.80;99.90;;;;;;6775183;87;20667;-78
2023/03/02 05:18:14;;;;;;;1999.90;999.90;;;-0.90;99.90;;;;;;6770611;87;20301;-77
2023/03/02 05:28:14;;;;;;;1999.90;999.90;;;-1.00;99.90;;;;;;6750899;88;20499;-77
2023/03/02 05:38:15;;;;;;;1999.90;999.90;;;-1.10;99.90;;;;;;6750389;87;20217;-76
2023/03/02 05:48:16;;;;;;;1999.90;999.90;;;-1.20;99.90;;;;;;6736902;88;20188;-77
2023/03/02 05:58:18;;;;;;;1999.90;999.90;;;-1.30;99.90;;;;;;6736911;88;20513;-77
2023/03/02 06:08:20;;;;;;;1999.90;999.90;;;-1.30;99.90;;;;;;6734815;88;20221;-77
2023/03/02 06:18:20;;;;;;;1999.90;999.90;;;-1.40;99.90;;;;;;6735195;88;20184;-77
2023/03/02 06:28:21;;;;;;;1999.90;999.90;;;-1.40;99.90;;;;;;6746625;87;20837;-76
2023/03/02 06:38:22;;;;;;;1999.90;999.90;;;-1.40;99.90;;;;;;6765210;87;20210;-77
2023/03/02 06:48:22;;;;;;;1999.90;999.90;;;-1.40;99.90;;;;;;6765115;87;20291;-76
2023/03/02 06:58:23;;;;;;;1999.90;999.90;;;-1.40;99.90;;;;;;6750276;88;20310;-77
2023/03/02 07:08:23;;;;;;;1999.90;999.90;;;-1.30;99.90;;;;;;6755848;87;20314;-76
2023/03/02 07:18:24;;;;;;;1999.90;999.90;;;-1.00;99.90;;;;;;6741716;88;20337;-76
2023/03/02 07:28:25;;;;;;;1999.90;999.90;;;-0.50;99.90;;;;;;6762281;87;20489;-78
2023/03/02 07:38:26;;;;;;;1999.90;999.90;;;-0.40;99.90;;;;;;6757791;87;20320;-78
2023/03/02 07:48:26;;;;;;;1999.90;999.90;;;0.10;99.90;;;;;;6755885;87;20346;-77
2023/03/02 07:58:27;;;;;;;1999.90;999.90;;;0.60;99.90;;;;;;6749253;88;20184;-77
2023/03/02 08:08:28;;;;;;;1999.90;999.90;;;2.10;99.90;;;;;;6750448;88;20234;-78
2023/03/02 08:18:28;;;;;;;1999.90;999.90;;;4.50;99.90;;;;;;6746260;87;21081;-79
2023/03/02 08:28:29;;;;;;;1999.90;999.90;;;6.10;99.90;;;;;;6750509;87;20192;-77
2023/03/02 08:38:30;;;;;;;1999.90;999.90;;;7.60;99.00;;;;;;6755609;77;20204;-76
2023/03/02 08:48:31;;;;;;;1999.90;999.90;;;7.30;99.20;;;;;;6765211;87;20194;-76
2023/03/02 08:58:32;;;;;;;1999.90;999.90;;;7.20;99.60;;;;;;6761938;87;20179;-76
2023/03/02 09:08:32;;;;;;;1999.90;999.90;;;7.50;99.30;;;;;;6780116;87;20187;-77
2023/03/02 09:18:33;;;;;;;1999.90;999.90;;;8.20;97.60;;;;;;6769136;87;20237;-76
2023/03/02 09:28:35;;;;;;;1999.90;999.90;;;8.20;95.30;;;;;;6772378;87;20187;-76
2023/03/02 09:38:35;;;;;;;1999.90;999.90;;;8.90;95.40;;;;;;6760467;87;20708;-76
2023/03/02 09:48:54;;;;;;;1999.90;999.90;;;9.80;93.50;;;;;;6765430;87;20325;-77
2023/03/02 09:59:26;;;;;;;1999.90;999.90;;;10.80;92.80;;;;;;6770820;87;20175;-77
2023/03/02 10:09:27;;;;;;;1999.90;999.90;;;10.50;93.30;;;;;;6760174;87;20284;-77
2023/03/02 10:19:40;;;;;;;1999.90;999.90;;;11.70;91.50;;;;;;6761106;87;20309;-77
2023/03/02 10:29:59;;;;;;;1999.90;999.90;;;13.30;90.20;;;;;;6760310;87;20172;-77
2023/03/02 10:40:00;;;;;;;1999.90;999.90;;;13.50;88.20;;;;;;6760535;87;20192;-77
2023/03/02 10:50:00;;;;;;;1999.90;999.90;;;14.90;86.20;;;;;;6764228;87;20196;-77
2023/03/02 11:00:13;;;;;;;1999.90;999.90;;;15.30;84.50;;;;;;6765949;87;20678;-76
2023/03/02 11:10:19;;;;;;;1999.90;999.90;;;15.80;82.20;;;;;;6766455;87;20183;-76
2023/03/02 11:20:35;;;;;;;1999.90;999.90;;;16.00;81.30;;;;;;6767428;87;20198;-77
2023/03/02 11:30:43;;;;;;;1999.90;999.90;;;16.60;81.00;;;;;;6774271;87;20188;-77
2023/03/02 11:41:28;;;;;;;1999.90;999.90;;;17.20;79.80;;;;;;6764486;87;20316;-77
2023/03/02 11:51:34;;;;;;;1999.90;999.90;;;17.00;78.40;;;;;;6756362;87;20714;-76
2023/03/02 12:01:36;;;;;;;1999.90;999.90;;;17.10;77.30;;;;;;6751350;87;20223;-77
2023/03/02 12:11:39;;;;;;;1999.90;999.90;;;16.50;77.40;;;;;;6760745;87;20203;-76
2023/03/02 12:21:42;;;;;;;1999.90;999.90;;;16.60;78.20;;;;;;6771379;87;20171;-76
2023/03/02 12:31:46;;;;;;;1999.90;999.90;;;17.30;76.90;;;;;;6765405;87;20623;-76
2023/03/02 12:42:01;;;;;;;1999.90;999.90;;;18.20;75.60;;;;;;6762610;87;20243;-75
2023/03/02 12:52:17;;;;;;;1999.90;999.90;;;18.60;75.60;;;;;;6761478;87;20259;-76
2023/03/02 13:02:21;;;;;;;1999.90;999.90;;;19.90;73.40;;;;;;6760964;87;20192;-76
2023/03/02 13:12:22;;;;;;;1999.90;999.90;;;19.60;73.30;;;;;;6757783;87;20196;-76
2023/03/02 13:22:23;;;;;;;1999.90;999.90;;;20.30;72.60;;;;;;6758947;87;20241;-76
2023/03/02 13:32:27;;;;;;;1999.90;999.90;;;19.60;72.20;;;;;;6757520;87;20924;-76
2023/03/02 13:42:35;;;;;;;1999.90;999.90;;;20.00;72.50;;;;;;6766046;87;20793;-75
2023/03/02 13:52:36;;;;;;;1999.90;999.90;;;21.00;70.80;;;;;;6766814;87;20530;-76
2023/03/02 14:02:36;;;;;;;1999.90;999.90;;;19.80;71.50;;;;;;6763631;87;20197;-76
2023/03/02 14:12:40;;;;;;;1999.90;999.90;;;18.80;72.90;;;;;;6767250;87;20326;-77
2023/03/02 14:22:40;;;;;;;1999.90;999.90;;;18.50;73.00;;;;;;6755220;87;20738;-76
2023/03/02 14:32:41;;;;;;;1999.90;999.90;;;18.40;73.40;;;;;;6760119;87;20336;-77
2023/03/02 14:43:24;;;;;;;1999.90;999.90;;;17.40;74.20;;;;;;6768263;76;20192;-79
2023/03/02 14:53:31;;;;;;;1999.90;999.90;;;16.90;74.80;;;;;;6738959;88;20265;-79
2023/03/02 15:03:32;;;;;;;1999.90;999.90;;;16.30;74.70;;;;;;6743309;88;20263;-79
2023/03/02 15:13:32;;;;;;;1999.90;999.90;;;15.50;75.10;;;;;;6739515;88;20328;-80
2023/03/02 15:23:33;;;;;;;1999.90;999.90;;;14.80;75.60;;;;;;6746258;88;20314;-78
2023/03/02 15:33:34;;;;;;;1999.90;999.90;;;14.80;76.10;;;;;;6759517;88;20241;-80
2023/03/02 15:43:34;;;;;;;1999.90;999.90;;;14.70;76.70;;;;;;6760175;88;20608;-79
2023/03/02 15:53:36;;;;;;;1999.90;999.90;;;14.60;76.10;;;;;;6741912;88;20181;-78
2023/03/02 16:03:37;;;;;;;1999.90;999.90;;;14.00;77.40;;;;;;6731005;88;20235;-78
2023/03/02 16:13:38;;;;;;;1999.90;999.90;;;13.90;77.60;;;;;;6738968;88;21025;-80
2023/03/02 16:23:38;;;;;;;1999.90;999.90;;;13.70;77.40;;;;;;6743786;88;20186;-79
2023/03/02 16:33:40;;;;;;;1999.90;999.90;;;13.30;78.10;;;;;;6748316;88;20306;-77
2023/03/02 16:43:45;;;;;;;1999.90;999.90;;;13.00;78.80;;;;;;6740765;88;20727;-79
2023/03/02 16:53:46;;;;;;;1999.90;999.90;;;12.60;79.20;;;;;;6738185;88;20192;-80
2023/03/02 17:03:48;;;;;;;1999.90;999.90;;;11.90;80.30;;;;;;6745177;88;20201;-79
2023/03/02 17:13:49;;;;;;;1999.90;999.90;;;11.40;80.90;;;;;;6742693;88;20208;-78
2023/03/02 17:23:49;;;;;;;1999.90;999.90;;;11.20;77.70;;;;;;6735501;88;20275;-78
2023/03/02 17:33:50;;;;;;;1999.90;999.90;;;10.90;78.90;;;;;;6735141;88;20228;-78
2023/03/02 17:43:50;;;;;;;1999.90;999.90;;;10.30;80.00;;;;;;6734379;88;20683;-77
2023/03/02 17:53:52;;;;;;;1999.90;999.90;;;9.90;81.00;;;;;;6735899;88;20716;-79
2023/03/02 18:03:53;;;;;;;1999.90;999.90;;;9.60;82.00;;;;;;6752583;88;20188;-79
2023/03/02 18:13:54;;;;;;;1999.90;999.90;;;9.10;84.40;;;;;;6743386;88;20215;-77
2023/03/02 18:23:55;;;;;;;1999.90;999.90;;;8.80;85.00;;;;;;6732289;88;20228;-79
2023/03/02 18:33:57;;;;;;;1999.90;999.90;;;8.50;86.40;;;;;;6752346;88;20190;-80
2023/03/02 18:44:02;;;;;;;1999.90;999.90;;;8.20;87.60;;;;;;6741703;88;20176;-78
2023/03/02 18:54:03;;;;;;;1999.90;999.90;;;7.80;88.90;;;;;;6745814;88;20213;-80
2023/03/02 19:04:03;;;;;;;1999.90;999.90;;;7.60;89.90;;;;;;6754741;88;20187;-79
2023/03/02 19:14:04;;;;;;;1999.90;999.90;;;7.30;90.30;;;;;;6752718;88;20220;-78
2023/03/02 19:24:05;;;;;;;1999.90;999.90;;;7.00;90.90;;;;;;6750658;88;20255;-79
2023/03/02 19:34:05;;;;;;;1999.90;999.90;;;6.70;91.40;;;;;;6752051;88;20523;-78
2023/03/02 19:44:06;;;;;;;1999.90;999.90;;;6.40;91.90;;;;;;6755255;88;20235;-79
2023/03/02 19:54:08;;;;;;;1999.90;999.90;;;6.10;92.40;;;;;;6755066;88;20293;-78
2023/03/02 20:04:08;;;;;;;1999.90;999.90;;;6.00;93.00;;;;;;6748016;88;20380;-78
2023/03/02 20:14:09;;;;;;;1999.90;999.90;;;5.80;93.80;;;;;;6768362;88;20252;-78
2023/03/02 20:24:10;;;;;;;1999.90;999.90;;;5.60;94.30;;;;;;6752301;88;20762;-78
2023/03/02 20:34:13;;;;;;;1999.90;999.90;;;5.50;95.10;;;;;;6759635;88;20612;-78
2023/03/02 20:44:13;;;;;;;1999.90;999.90;;;5.40;95.70;;;;;;6743469;88;20302;-78
2023/03/02 20:54:15;;;;;;;1999.90;999.90;;;5.20;96.30;;;;;;6741331;88;20283;-78
2023/03/02 21:04:16;;;;;;;1999.90;999.90;;;5.00;97.40;;;;;;6739881;88;20211;-79
2023/03/02 21:14:16;;;;;;;1999.90;999.90;;;4.90;98.20;;;;;;6740044;88;20335;-79
2023/03/02 21:24:17;;;;;;;1999.90;999.90;;;4.70;99.90;;;;;;6739385;88;20282;-77
2023/03/02 21:34:18;;;;;;;1999.90;999.90;;;4.60;99.90;;;;;;6737111;88;20204;-78
2023/03/02 21:44:19;;;;;;;1999.90;999.90;;;4.50;99.90;;;;;;6739058;88;20205;-78
2023/03/02 21:54:19;;;;;;;1999.90;999.90;;;4.40;99.90;;;;;;6737185;88;20265;-78
2023/03/02 22:04:20;;;;;;;1999.90;999.90;;;4.40;99.90;;;;;;6733471;88;20189;-77
2023/03/02 22:14:20;;;;;;;1999.90;999.90;;;4.20;99.90;;;;;;6727378;88;20219;-77
2023/03/02 22:24:24;;;;;;;1999.90;999.90;;;4.20;99.90;;;;;;6722516;88;20722;-78
2023/03/02 22:34:29;;;;;;;1999.90;999.90;;;3.90;99.90;;;;;;6725127;88;20204;-78
2023/03/02 22:44:30;;;;;;;1999.90;999.90;;;3.80;99.90;;;;;;6727723;88;20209;-78
2023/03/02 22:54:36;;;;;;;1999.90;999.90;;;3.60;99.90;;;;;;6727463;88;20193;-78
2023/03/02 23:04:37;;;;;;;1999.90;999.90;;;3.50;99.90;;;;;;6726474;88;20199;-78
2023/03/02 23:14:49;;;;;;;1999.90;999.90;;;3.50;99.90;;;;;;6726430;88;20521;-78
2023/03/02 23:24:49;;;;;;;1999.90;999.90;;;3.50;99.90;;;;;;6725606;88;20192;-78
2023/03/02 23:34:50;;;;;;;1999.90;999.90;;;3.30;99.90;;;;;;6728034;88;20215;-77
2023/03/02 23:44:50;;;;;;;1999.90;999.90;;;3.10;99.90;;;;;;6726158;88;20222;-78
2023/03/02 23:54:51;;;;;;;1999.90;999.90;;;2.80;99.90;;;;;;6724830;88;20246;-78
